sensor_id;sensor_type;location;lat;lon;timestamp;temperature;humidity
82782;DHT22;72517;47.260;11.422;2023-09-18T00:01:11;19.40;84.10
82782;DHT22;72517;47.260;11.422;2023-09-18T00:03:38;19.40;84.80
82782;DHT22;72517;47.260;11.422;2023-09-18T00:06:05;19.30;84.50
82782;DHT22;72517;47.260;11.422;2023-09-18T00:08:32;19.30;84.50
82782;DHT22;72517;47.260;11.422;2023-09-18T00:10:59;19.20;84.20
82782;DHT22;72517;47.260;11.422;2023-09-18T00:13:26;19.20;84.30
82782;DHT22;72517;47.260;11.422;2023-09-18T00:15:55;19.20;83.80
82782;DHT22;72517;47.260;11.422;2023-09-18T00:18:25;19.20;83.00
82782;DHT22;72517;47.260;11.422;2023-09-18T00:20:52;19.20;82.90
82782;DHT22;72517;47.260;11.422;2023-09-18T00:23:19;19.30;82.80
82782;DHT22;72517;47.260;11.422;2023-09-18T00:25:46;19.30;82.90
82782;DHT22;72517;47.260;11.422;2023-09-18T00:28:13;19.30;82.50
82782;DHT22;72517;47.260;11.422;2023-09-18T00:30:46;19.30;82.60
82782;DHT22;72517;47.260;11.422;2023-09-18T00:33:13;19.20;82.70
82782;DHT22;72517;47.260;11.422;2023-09-18T00:35:39;19.20;83.80
82782;DHT22;72517;47.260;11.422;2023-09-18T00:38:06;19.20;84.60
82782;DHT22;72517;47.260;11.422;2023-09-18T00:40:33;19.10;84.60
82782;DHT22;72517;47.260;11.422;2023-09-18T00:43:00;19.10;84.50
82782;DHT22;72517;47.260;11.422;2023-09-18T00:45:27;19.10;84.00
82782;DHT22;72517;47.260;11.422;2023-09-18T00:47:54;19.10;83.20
82782;DHT22;72517;47.260;11.422;2023-09-18T00:50:21;19.10;83.60
82782;DHT22;72517;47.260;11.422;2023-09-18T00:52:49;19.10;83.40
82782;DHT22;72517;47.260;11.422;2023-09-18T00:55:16;19.10;83.30
82782;DHT22;72517;47.260;11.422;2023-09-18T00:57:44;19.10;82.40
82782;DHT22;72517;47.260;11.422;2023-09-18T01:00:12;19.20;82.80
82782;DHT22;72517;47.260;11.422;2023-09-18T01:02:41;19.20;81.80
82782;DHT22;72517;47.260;11.422;2023-09-18T01:05:08;19.20;82.00
82782;DHT22;72517;47.260;11.422;2023-09-18T01:07:36;19.20;82.00
82782;DHT22;72517;47.260;11.422;2023-09-18T01:10:03;19.20;81.60
82782;DHT22;72517;47.260;11.422;2023-09-18T01:12:45;19.30;81.90
82782;DHT22;72517;47.260;11.422;2023-09-18T01:15:26;19.20;82.50
82782;DHT22;72517;47.260;11.422;2023-09-18T01:17:55;19.10;83.10
82782;DHT22;72517;47.260;11.422;2023-09-18T01:20:22;19.00;83.30
82782;DHT22;72517;47.260;11.422;2023-09-18T01:22:49;19.00;83.60
82782;DHT22;72517;47.260;11.422;2023-09-18T01:25:16;18.90;83.60
82782;DHT22;72517;47.260;11.422;2023-09-18T01:27:43;19.00;83.90
82782;DHT22;72517;47.260;11.422;2023-09-18T01:30:10;19.00;83.00
82782;DHT22;72517;47.260;11.422;2023-09-18T01:32:38;19.00;83.00
82782;DHT22;72517;47.260;11.422;2023-09-18T01:35:06;19.00;83.30
82782;DHT22;72517;47.260;11.422;2023-09-18T01:37:34;19.00;84.00
82782;DHT22;72517;47.260;11.422;2023-09-18T01:40:03;18.90;84.80
82782;DHT22;72517;47.260;11.422;2023-09-18T01:42:33;18.80;85.20
82782;DHT22;72517;47.260;11.422;2023-09-18T01:44:59;18.70;85.40
82782;DHT22;72517;47.260;11.422;2023-09-18T01:47:26;18.60;83.50
82782;DHT22;72517;47.260;11.422;2023-09-18T01:49:53;18.60;84.30
82782;DHT22;72517;47.260;11.422;2023-09-18T01:52:20;18.60;84.60
82782;DHT22;72517;47.260;11.422;2023-09-18T01:54:47;18.60;84.70
82782;DHT22;72517;47.260;11.422;2023-09-18T01:57:15;18.60;84.40
82782;DHT22;72517;47.260;11.422;2023-09-18T01:59:42;18.60;84.90
82782;DHT22;72517;47.260;11.422;2023-09-18T02:02:10;18.60;85.20
82782;DHT22;72517;47.260;11.422;2023-09-18T02:04:37;18.60;85.60
82782;DHT22;72517;47.260;11.422;2023-09-18T02:07:05;18.60;85.40
82782;DHT22;72517;47.260;11.422;2023-09-18T02:09:32;18.60;85.70
82782;DHT22;72517;47.260;11.422;2023-09-18T02:11:59;18.60;85.40
82782;DHT22;72517;47.260;11.422;2023-09-18T02:14:26;18.70;85.10
82782;DHT22;72517;47.260;11.422;2023-09-18T02:16:55;18.70;85.30
82782;DHT22;72517;47.260;11.422;2023-09-18T02:19:22;18.70;85.20
82782;DHT22;72517;47.260;11.422;2023-09-18T02:21:48;18.70;85.70
82782;DHT22;72517;47.260;11.422;2023-09-18T02:24:15;18.70;86.30
82782;DHT22;72517;47.260;11.422;2023-09-18T02:26:42;18.60;86.80
82782;DHT22;72517;47.260;11.422;2023-09-18T02:29:10;18.50;87.10
82782;DHT22;72517;47.260;11.422;2023-09-18T02:31:39;18.50;87.60
82782;DHT22;72517;47.260;11.422;2023-09-18T02:34:06;18.30;88.20
82782;DHT22;72517;47.260;11.422;2023-09-18T02:36:35;18.20;89.40
82782;DHT22;72517;47.260;11.422;2023-09-18T02:39:02;18.20;89.80
82782;DHT22;72517;47.260;11.422;2023-09-18T02:41:29;18.10;89.30
82782;DHT22;72517;47.260;11.422;2023-09-18T02:43:56;18.20;89.30
82782;DHT22;72517;47.260;11.422;2023-09-18T02:46:23;18.20;87.90
82782;DHT22;72517;47.260;11.422;2023-09-18T02:48:50;18.30;86.50
82782;DHT22;72517;47.260;11.422;2023-09-18T02:51:16;18.30;85.70
82782;DHT22;72517;47.260;11.422;2023-09-18T02:53:43;18.40;86.60
82782;DHT22;72517;47.260;11.422;2023-09-18T02:56:10;18.40;86.90
82782;DHT22;72517;47.260;11.422;2023-09-18T02:58:37;18.50;87.20
82782;DHT22;72517;47.260;11.422;2023-09-18T03:01:04;18.50;86.70
82782;DHT22;72517;47.260;11.422;2023-09-18T03:03:33;18.40;87.10
82782;DHT22;72517;47.260;11.422;2023-09-18T03:06:01;18.40;87.20
82782;DHT22;72517;47.260;11.422;2023-09-18T03:08:28;18.50;86.50
82782;DHT22;72517;47.260;11.422;2023-09-18T03:10:55;18.50;86.20
82782;DHT22;72517;47.260;11.422;2023-09-18T03:13:22;18.50;86.60
82782;DHT22;72517;47.260;11.422;2023-09-18T03:15:50;18.60;87.10
82782;DHT22;72517;47.260;11.422;2023-09-18T03:18:16;18.60;86.80
82782;DHT22;72517;47.260;11.422;2023-09-18T03:20:43;18.50;86.70
82782;DHT22;72517;47.260;11.422;2023-09-18T03:23:10;18.50;87.00
82782;DHT22;72517;47.260;11.422;2023-09-18T03:25:37;18.50;87.00
82782;DHT22;72517;47.260;11.422;2023-09-18T03:28:04;18.40;86.90
82782;DHT22;72517;47.260;11.422;2023-09-18T03:30:31;18.40;87.30
82782;DHT22;72517;47.260;11.422;2023-09-18T03:32:58;18.30;87.70
82782;DHT22;72517;47.260;11.422;2023-09-18T03:35:25;18.20;88.20
82782;DHT22;72517;47.260;11.422;2023-09-18T03:37:52;18.20;88.60
82782;DHT22;72517;47.260;11.422;2023-09-18T03:40:20;18.20;89.00
82782;DHT22;72517;47.260;11.422;2023-09-18T03:42:47;18.20;89.10
82782;DHT22;72517;47.260;11.422;2023-09-18T03:45:15;18.10;89.00
82782;DHT22;72517;47.260;11.422;2023-09-18T03:47:44;18.10;89.70
82782;DHT22;72517;47.260;11.422;2023-09-18T03:50:11;18.00;90.00
82782;DHT22;72517;47.260;11.422;2023-09-18T03:52:39;18.00;90.00
82782;DHT22;72517;47.260;11.422;2023-09-18T03:55:06;18.10;90.10
82782;DHT22;72517;47.260;11.422;2023-09-18T03:57:34;18.00;90.00
82782;DHT22;72517;47.260;11.422;2023-09-18T04:00:01;18.10;90.10
82782;DHT22;72517;47.260;11.422;2023-09-18T04:02:28;18.10;90.20
82782;DHT22;72517;47.260;11.422;2023-09-18T04:04:55;18.00;90.40
82782;DHT22;72517;47.260;11.422;2023-09-18T04:07:22;17.90;90.60
82782;DHT22;72517;47.260;11.422;2023-09-18T04:09:49;17.90;91.00
82782;DHT22;72517;47.260;11.422;2023-09-18T04:12:16;17.80;91.10
82782;DHT22;72517;47.260;11.422;2023-09-18T04:14:43;17.80;91.30
82782;DHT22;72517;47.260;11.422;2023-09-18T04:17:09;17.70;91.60
82782;DHT22;72517;47.260;11.422;2023-09-18T04:19:36;17.70;91.60
82782;DHT22;72517;47.260;11.422;2023-09-18T04:22:03;17.70;91.80
82782;DHT22;72517;47.260;11.422;2023-09-18T04:24:30;17.70;92.00
82782;DHT22;72517;47.260;11.422;2023-09-18T04:26:57;17.70;92.10
82782;DHT22;72517;47.260;11.422;2023-09-18T04:29:23;17.70;92.00
82782;DHT22;72517;47.260;11.422;2023-09-18T04:31:50;17.70;92.00
82782;DHT22;72517;47.260;11.422;2023-09-18T04:34:19;17.70;91.90
82782;DHT22;72517;47.260;11.422;2023-09-18T04:36:47;17.70;91.90
82782;DHT22;72517;47.260;11.422;2023-09-18T04:39:14;17.70;91.90
82782;DHT22;72517;47.260;11.422;2023-09-18T04:41:41;17.70;92.20
82782;DHT22;72517;47.260;11.422;2023-09-18T04:44:07;17.70;92.20
82782;DHT22;72517;47.260;11.422;2023-09-18T04:46:35;17.80;92.20
82782;DHT22;72517;47.260;11.422;2023-09-18T04:49:02;17.80;92.00
82782;DHT22;72517;47.260;11.422;2023-09-18T04:51:31;17.90;91.80
82782;DHT22;72517;47.260;11.422;2023-09-18T04:53:58;17.80;91.60
82782;DHT22;72517;47.260;11.422;2023-09-18T04:56:25;17.90;91.90
82782;DHT22;72517;47.260;11.422;2023-09-18T04:58:52;18.00;91.70
82782;DHT22;72517;47.260;11.422;2023-09-18T05:01:19;17.90;91.50
82782;DHT22;72517;47.260;11.422;2023-09-18T05:03:46;18.00;91.30
82782;DHT22;72517;47.260;11.422;2023-09-18T05:06:14;18.00;91.40
82782;DHT22;72517;47.260;11.422;2023-09-18T05:08:42;17.90;91.40
82782;DHT22;72517;47.260;11.422;2023-09-18T05:11:08;17.90;91.50
82782;DHT22;72517;47.260;11.422;2023-09-18T05:13:35;17.90;91.50
82782;DHT22;72517;47.260;11.422;2023-09-18T05:16:02;17.90;91.50
82782;DHT22;72517;47.260;11.422;2023-09-18T05:18:29;18.00;91.60
82782;DHT22;72517;47.260;11.422;2023-09-18T05:20:56;18.00;91.20
82782;DHT22;72517;47.260;11.422;2023-09-18T05:23:23;18.00;91.20
82782;DHT22;72517;47.260;11.422;2023-09-18T05:25:50;18.10;91.00
82782;DHT22;72517;47.260;11.422;2023-09-18T05:28:17;18.20;90.70
82782;DHT22;72517;47.260;11.422;2023-09-18T05:30:43;18.20;90.60
82782;DHT22;72517;47.260;11.422;2023-09-18T05:33:10;18.20;90.50
82782;DHT22;72517;47.260;11.422;2023-09-18T05:35:42;18.20;90.90
82782;DHT22;72517;47.260;11.422;2023-09-18T05:38:11;18.20;90.80
82782;DHT22;72517;47.260;11.422;2023-09-18T05:40:39;18.30;90.50
82782;DHT22;72517;47.260;11.422;2023-09-18T05:43:06;18.40;90.50
82782;DHT22;72517;47.260;11.422;2023-09-18T05:45:33;18.40;90.10
82782;DHT22;72517;47.260;11.422;2023-09-18T05:48:00;18.50;89.00
82782;DHT22;72517;47.260;11.422;2023-09-18T05:50:30;18.60;88.60
82782;DHT22;72517;47.260;11.422;2023-09-18T05:52:58;18.60;88.10
82782;DHT22;72517;47.260;11.422;2023-09-18T05:55:28;18.70;87.60
82782;DHT22;72517;47.260;11.422;2023-09-18T05:57:55;18.70;87.70
82782;DHT22;72517;47.260;11.422;2023-09-18T06:00:23;18.70;87.20
82782;DHT22;72517;47.260;11.422;2023-09-18T06:02:50;18.80;86.90
82782;DHT22;72517;47.260;11.422;2023-09-18T06:05:17;18.80;87.10
82782;DHT22;72517;47.260;11.422;2023-09-18T06:07:47;18.80;86.50
82782;DHT22;72517;47.260;11.422;2023-09-18T06:10:14;18.90;86.70
82782;DHT22;72517;47.260;11.422;2023-09-18T06:12:42;18.90;86.50
82782;DHT22;72517;47.260;11.422;2023-09-18T06:15:09;19.00;86.60
82782;DHT22;72517;47.260;11.422;2023-09-18T06:17:41;18.90;85.90
82782;DHT22;72517;47.260;11.422;2023-09-18T06:20:08;19.00;85.80
82782;DHT22;72517;47.260;11.422;2023-09-18T06:22:40;19.00;86.30
82782;DHT22;72517;47.260;11.422;2023-09-18T06:25:08;18.90;86.50
82782;DHT22;72517;47.260;11.422;2023-09-18T06:27:36;18.90;87.20
82782;DHT22;72517;47.260;11.422;2023-09-18T06:30:04;18.80;86.80
82782;DHT22;72517;47.260;11.422;2023-09-18T06:32:32;18.90;86.80
82782;DHT22;72517;47.260;11.422;2023-09-18T06:34:59;19.00;86.10
82782;DHT22;72517;47.260;11.422;2023-09-18T06:37:26;19.10;85.90
82782;DHT22;72517;47.260;11.422;2023-09-18T06:39:53;19.10;85.40
82782;DHT22;72517;47.260;11.422;2023-09-18T06:42:20;19.10;85.10
82782;DHT22;72517;47.260;11.422;2023-09-18T06:44:47;19.20;84.70
82782;DHT22;72517;47.260;11.422;2023-09-18T06:47:14;19.30;84.70
82782;DHT22;72517;47.260;11.422;2023-09-18T06:49:41;19.30;83.40
82782;DHT22;72517;47.260;11.422;2023-09-18T06:52:09;19.40;83.20
82782;DHT22;72517;47.260;11.422;2023-09-18T06:54:36;19.40;82.80
82782;DHT22;72517;47.260;11.422;2023-09-18T06:57:03;19.50;82.60
82782;DHT22;72517;47.260;11.422;2023-09-18T06:59:30;19.70;82.30
82782;DHT22;72517;47.260;11.422;2023-09-18T07:01:59;19.80;81.50
82782;DHT22;72517;47.260;11.422;2023-09-18T07:04:26;19.90;81.00
82782;DHT22;72517;47.260;11.422;2023-09-18T07:06:53;20.00;80.70
82782;DHT22;72517;47.260;11.422;2023-09-18T07:09:21;20.30;80.30
82782;DHT22;72517;47.260;11.422;2023-09-18T07:11:50;20.60;79.20
82782;DHT22;72517;47.260;11.422;2023-09-18T07:14:17;20.90;77.00
82782;DHT22;72517;47.260;11.422;2023-09-18T07:16:44;21.30;76.00
82782;DHT22;72517;47.260;11.422;2023-09-18T07:19:11;21.70;74.10
82782;DHT22;72517;47.260;11.422;2023-09-18T07:21:42;22.10;72.60
82782;DHT22;72517;47.260;11.422;2023-09-18T07:24:08;22.50;71.20
82782;DHT22;72517;47.260;11.422;2023-09-18T07:26:35;22.80;69.70
82782;DHT22;72517;47.260;11.422;2023-09-18T07:29:02;23.10;68.70
82782;DHT22;72517;47.260;11.422;2023-09-18T07:31:29;23.50;67.40
82782;DHT22;72517;47.260;11.422;2023-09-18T07:33:56;23.90;66.60
82782;DHT22;72517;47.260;11.422;2023-09-18T07:36:23;24.00;64.90
82782;DHT22;72517;47.260;11.422;2023-09-18T07:38:50;24.00;65.00
82782;DHT22;72517;47.260;11.422;2023-09-18T07:41:17;24.00;64.90
82782;DHT22;72517;47.260;11.422;2023-09-18T07:43:45;24.00;64.30
82782;DHT22;72517;47.260;11.422;2023-09-18T07:46:11;23.90;63.50
82782;DHT22;72517;47.260;11.422;2023-09-18T07:48:38;23.80;63.20
82782;DHT22;72517;47.260;11.422;2023-09-18T07:51:05;23.80;63.60
82782;DHT22;72517;47.260;11.422;2023-09-18T07:53:32;23.70;63.30
82782;DHT22;72517;47.260;11.422;2023-09-18T07:55:59;23.70;63.70
82782;DHT22;72517;47.260;11.422;2023-09-18T07:58:27;23.70;63.70
82782;DHT22;72517;47.260;11.422;2023-09-18T08:00:55;23.90;63.90
82782;DHT22;72517;47.260;11.422;2023-09-18T08:03:23;24.10;64.30
82782;DHT22;72517;47.260;11.422;2023-09-18T08:05:51;24.30;64.00
82782;DHT22;72517;47.260;11.422;2023-09-18T08:08:19;24.30;62.90
82782;DHT22;72517;47.260;11.422;2023-09-18T08:10:47;24.50;63.10
82782;DHT22;72517;47.260;11.422;2023-09-18T08:13:14;24.60;63.30
82782;DHT22;72517;47.260;11.422;2023-09-18T08:15:41;24.60;62.70
82782;DHT22;72517;47.260;11.422;2023-09-18T08:18:09;24.60;63.10
82782;DHT22;72517;47.260;11.422;2023-09-18T08:20:43;24.70;63.10
82782;DHT22;72517;47.260;11.422;2023-09-18T08:23:13;24.90;63.70
82782;DHT22;72517;47.260;11.422;2023-09-18T08:25:39;24.90;63.20
82782;DHT22;72517;47.260;11.422;2023-09-18T08:28:06;24.90;63.20
82782;DHT22;72517;47.260;11.422;2023-09-18T08:30:33;24.90;63.40
82782;DHT22;72517;47.260;11.422;2023-09-18T08:33:02;25.00;64.00
82782;DHT22;72517;47.260;11.422;2023-09-18T08:35:29;25.10;63.30
82782;DHT22;72517;47.260;11.422;2023-09-18T08:37:56;25.40;62.30
82782;DHT22;72517;47.260;11.422;2023-09-18T08:40:23;25.60;62.60
82782;DHT22;72517;47.260;11.422;2023-09-18T08:42:52;25.90;62.50
82782;DHT22;72517;47.260;11.422;2023-09-18T08:45:27;26.10;61.20
82782;DHT22;72517;47.260;11.422;2023-09-18T08:47:54;26.40;61.00
82782;DHT22;72517;47.260;11.422;2023-09-18T08:50:21;26.70;61.10
82782;DHT22;72517;47.260;11.422;2023-09-18T08:52:50;27.40;60.30
82782;DHT22;72517;47.260;11.422;2023-09-18T08:55:17;28.00;58.70
82782;DHT22;72517;47.260;11.422;2023-09-18T08:57:44;29.80;57.70
82782;DHT22;72517;47.260;11.422;2023-09-18T09:00:13;30.30;54.10
82782;DHT22;72517;47.260;11.422;2023-09-18T09:02:43;31.10;53.10
82782;DHT22;72517;47.260;11.422;2023-09-18T09:05:11;31.10;51.10
82782;DHT22;72517;47.260;11.422;2023-09-18T09:07:38;31.50;50.90
82782;DHT22;72517;47.260;11.422;2023-09-18T09:10:05;31.40;51.70
82782;DHT22;72517;47.260;11.422;2023-09-18T09:12:52;31.30;49.20
82782;DHT22;72517;47.260;11.422;2023-09-18T09:15:43;30.70;48.70
82782;DHT22;72517;47.260;11.422;2023-09-18T09:18:09;29.90;49.60
82782;DHT22;72517;47.260;11.422;2023-09-18T09:20:36;29.20;51.00
82782;DHT22;72517;47.260;11.422;2023-09-18T09:23:04;28.60;51.30
82782;DHT22;72517;47.260;11.422;2023-09-18T09:25:33;27.90;52.20
82782;DHT22;72517;47.260;11.422;2023-09-18T09:28:04;27.40;53.10
82782;DHT22;72517;47.260;11.422;2023-09-18T09:30:34;26.80;54.60
82782;DHT22;72517;47.260;11.422;2023-09-18T09:33:03;26.30;55.60
82782;DHT22;72517;47.260;11.422;2023-09-18T09:35:36;26.00;56.00
82782;DHT22;72517;47.260;11.422;2023-09-18T09:38:10;25.70;56.80
82782;DHT22;72517;47.260;11.422;2023-09-18T09:40:40;25.50;57.70
82782;DHT22;72517;47.260;11.422;2023-09-18T09:43:09;25.40;57.90
82782;DHT22;72517;47.260;11.422;2023-09-18T09:45:36;25.20;57.70
82782;DHT22;72517;47.260;11.422;2023-09-18T09:48:04;25.00;58.10
82782;DHT22;72517;47.260;11.422;2023-09-18T09:50:32;24.90;58.60
82782;DHT22;72517;47.260;11.422;2023-09-18T09:53:00;24.80;58.80
82782;DHT22;72517;47.260;11.422;2023-09-18T09:55:33;24.70;59.40
82782;DHT22;72517;47.260;11.422;2023-09-18T09:58:03;24.60;59.30
82782;DHT22;72517;47.260;11.422;2023-09-18T10:00:49;24.60;60.30
82782;DHT22;72517;47.260;11.422;2023-09-18T10:03:20;24.60;60.30
82782;DHT22;72517;47.260;11.422;2023-09-18T10:05:51;24.60;60.40
82782;DHT22;72517;47.260;11.422;2023-09-18T10:08:21;24.70;60.40
82782;DHT22;72517;47.260;11.422;2023-09-18T10:10:50;24.90;60.60
82782;DHT22;72517;47.260;11.422;2023-09-18T10:13:27;25.10;60.20
82782;DHT22;72517;47.260;11.422;2023-09-18T10:15:56;25.20;59.90
82782;DHT22;72517;47.260;11.422;2023-09-18T10:19:03;25.60;59.50
82782;DHT22;72517;47.260;11.422;2023-09-18T10:24:24;26.20;58.80
82782;DHT22;72517;47.260;11.422;2023-09-18T10:27:02;26.30;58.20
82782;DHT22;72517;47.260;11.422;2023-09-18T10:29:33;26.30;57.70
82782;DHT22;72517;47.260;11.422;2023-09-18T10:32:03;26.30;58.30
82782;DHT22;72517;47.260;11.422;2023-09-18T10:34:31;26.30;58.50
82782;DHT22;72517;47.260;11.422;2023-09-18T10:37:00;26.40;58.10
82782;DHT22;72517;47.260;11.422;2023-09-18T10:39:29;26.60;57.60
82782;DHT22;72517;47.260;11.422;2023-09-18T10:42:00;26.90;57.90
82782;DHT22;72517;47.260;11.422;2023-09-18T10:44:29;27.20;57.10
82782;DHT22;72517;47.260;11.422;2023-09-18T10:46:57;27.20;55.80
82782;DHT22;72517;47.260;11.422;2023-09-18T10:49:25;27.40;54.30
82782;DHT22;72517;47.260;11.422;2023-09-18T10:51:54;27.60;54.80
82782;DHT22;72517;47.260;11.422;2023-09-18T10:54:22;27.80;53.80
82782;DHT22;72517;47.260;11.422;2023-09-18T10:56:49;27.90;54.80
82782;DHT22;72517;47.260;11.422;2023-09-18T10:59:17;28.00;51.30
82782;DHT22;72517;47.260;11.422;2023-09-18T11:01:44;28.10;52.70
82782;DHT22;72517;47.260;11.422;2023-09-18T11:04:12;28.00;51.20
82782;DHT22;72517;47.260;11.422;2023-09-18T11:09:29;28.00;51.20
82782;DHT22;72517;47.260;11.422;2023-09-18T11:14:44;27.90;50.30
82782;DHT22;72517;47.260;11.422;2023-09-18T11:17:30;27.70;50.40
82782;DHT22;72517;47.260;11.422;2023-09-18T11:25:41;27.30;50.50
82782;DHT22;72517;47.260;11.422;2023-09-18T11:28:23;27.10;50.90
82782;DHT22;72517;47.260;11.422;2023-09-18T11:30:55;27.10;51.60
82782;DHT22;72517;47.260;11.422;2023-09-18T11:33:36;27.10;52.00
82782;DHT22;72517;47.260;11.422;2023-09-18T11:38:54;27.10;55.20
82782;DHT22;72517;47.260;11.422;2023-09-18T11:41:28;26.80;56.50
82782;DHT22;72517;47.260;11.422;2023-09-18T11:46:55;26.00;58.40
82782;DHT22;72517;47.260;11.422;2023-09-18T11:49:24;25.70;59.50
82782;DHT22;72517;47.260;11.422;2023-09-18T11:51:52;25.60;60.00
82782;DHT22;72517;47.260;11.422;2023-09-18T11:54:19;25.30;60.10
82782;DHT22;72517;47.260;11.422;2023-09-18T11:56:47;25.20;60.60
82782;DHT22;72517;47.260;11.422;2023-09-18T11:59:14;25.10;60.90
82782;DHT22;72517;47.260;11.422;2023-09-18T12:01:42;24.90;60.40
82782;DHT22;72517;47.260;11.422;2023-09-18T12:04:12;24.80;61.00
82782;DHT22;72517;47.260;11.422;2023-09-18T12:06:41;24.60;61.60
82782;DHT22;72517;47.260;11.422;2023-09-18T12:09:08;24.60;62.20
82782;DHT22;72517;47.260;11.422;2023-09-18T12:11:36;24.50;61.60
82782;DHT22;72517;47.260;11.422;2023-09-18T12:14:07;24.50;61.60
82782;DHT22;72517;47.260;11.422;2023-09-18T12:16:38;24.50;62.00
82782;DHT22;72517;47.260;11.422;2023-09-18T12:19:05;24.50;62.30
82782;DHT22;72517;47.260;11.422;2023-09-18T12:21:32;24.50;62.40
82782;DHT22;72517;47.260;11.422;2023-09-18T12:23:59;24.50;62.50
82782;DHT22;72517;47.260;11.422;2023-09-18T12:26:26;24.40;62.70
82782;DHT22;72517;47.260;11.422;2023-09-18T12:28:53;24.40;63.00
82782;DHT22;72517;47.260;11.422;2023-09-18T12:31:20;24.30;63.30
82782;DHT22;72517;47.260;11.422;2023-09-18T12:33:46;24.20;63.80
82782;DHT22;72517;47.260;11.422;2023-09-18T12:36:18;24.10;64.00
82782;DHT22;72517;47.260;11.422;2023-09-18T12:38:55;24.10;64.30
82782;DHT22;72517;47.260;11.422;2023-09-18T12:41:24;24.10;64.40
82782;DHT22;72517;47.260;11.422;2023-09-18T12:43:52;24.20;64.50
82782;DHT22;72517;47.260;11.422;2023-09-18T12:46:19;24.30;64.20
82782;DHT22;72517;47.260;11.422;2023-09-18T12:48:47;24.30;64.00
82782;DHT22;72517;47.260;11.422;2023-09-18T12:51:14;24.20;64.60
82782;DHT22;72517;47.260;11.422;2023-09-18T12:53:46;24.20;65.00
82782;DHT22;72517;47.260;11.422;2023-09-18T12:56:14;24.10;65.30
82782;DHT22;72517;47.260;11.422;2023-09-18T12:58:41;24.10;65.80
82782;DHT22;72517;47.260;11.422;2023-09-18T13:01:10;24.10;65.70
82782;DHT22;72517;47.260;11.422;2023-09-18T13:03:46;24.10;65.40
82782;DHT22;72517;47.260;11.422;2023-09-18T13:06:17;24.00;65.10
82782;DHT22;72517;47.260;11.422;2023-09-18T13:08:45;24.00;65.10
82782;DHT22;72517;47.260;11.422;2023-09-18T13:11:12;24.00;64.30
82782;DHT22;72517;47.260;11.422;2023-09-18T13:13:41;23.90;64.40
82782;DHT22;72517;47.260;11.422;2023-09-18T13:16:09;23.80;64.30
82782;DHT22;72517;47.260;11.422;2023-09-18T13:18:37;23.70;65.00
82782;DHT22;72517;47.260;11.422;2023-09-18T13:21:12;23.60;65.30
82782;DHT22;72517;47.260;11.422;2023-09-18T13:23:39;23.40;65.50
82782;DHT22;72517;47.260;11.422;2023-09-18T13:26:07;23.20;65.90
82782;DHT22;72517;47.260;11.422;2023-09-18T13:28:35;22.90;66.40
82782;DHT22;72517;47.260;11.422;2023-09-18T13:31:05;22.80;66.90
82782;DHT22;72517;47.260;11.422;2023-09-18T13:33:33;22.70;66.80
82782;DHT22;72517;47.260;11.422;2023-09-18T13:36:04;22.60;66.80
82782;DHT22;72517;47.260;11.422;2023-09-18T13:38:31;22.50;67.00
82782;DHT22;72517;47.260;11.422;2023-09-18T13:40:58;22.40;67.30
82782;DHT22;72517;47.260;11.422;2023-09-18T13:43:25;22.40;67.70
82782;DHT22;72517;47.260;11.422;2023-09-18T13:45:53;22.30;68.60
82782;DHT22;72517;47.260;11.422;2023-09-18T13:48:21;22.30;67.70
82782;DHT22;72517;47.260;11.422;2023-09-18T13:50:49;22.30;67.40
82782;DHT22;72517;47.260;11.422;2023-09-18T13:53:16;22.20;67.10
82782;DHT22;72517;47.260;11.422;2023-09-18T13:55:43;22.10;66.20
82782;DHT22;72517;47.260;11.422;2023-09-18T13:58:10;21.90;66.30
82782;DHT22;72517;47.260;11.422;2023-09-18T14:00:37;21.80;66.90
82782;DHT22;72517;47.260;11.422;2023-09-18T14:03:04;21.60;67.30
82782;DHT22;72517;47.260;11.422;2023-09-18T14:05:31;21.50;67.70
82782;DHT22;72517;47.260;11.422;2023-09-18T14:07:59;21.50;68.00
82782;DHT22;72517;47.260;11.422;2023-09-18T14:10:26;21.30;68.00
82782;DHT22;72517;47.260;11.422;2023-09-18T14:12:54;21.30;68.70
82782;DHT22;72517;47.260;11.422;2023-09-18T14:15:22;21.30;68.60
82782;DHT22;72517;47.260;11.422;2023-09-18T14:17:49;21.10;68.80
82782;DHT22;72517;47.260;11.422;2023-09-18T14:20:16;21.10;69.00
82782;DHT22;72517;47.260;11.422;2023-09-18T14:22:45;21.10;69.60
82782;DHT22;72517;47.260;11.422;2023-09-18T14:25:15;20.90;69.50
82782;DHT22;72517;47.260;11.422;2023-09-18T14:27:42;20.80;70.20
82782;DHT22;72517;47.260;11.422;2023-09-18T14:30:09;20.60;71.30
82782;DHT22;72517;47.260;11.422;2023-09-18T14:32:36;20.50;72.70
82782;DHT22;72517;47.260;11.422;2023-09-18T14:35:04;20.40;74.30
82782;DHT22;72517;47.260;11.422;2023-09-18T14:37:34;20.30;75.70
82782;DHT22;72517;47.260;11.422;2023-09-18T14:40:01;20.10;76.30
82782;DHT22;72517;47.260;11.422;2023-09-18T14:42:28;20.00;79.10
82782;DHT22;72517;47.260;11.422;2023-09-18T14:44:55;19.80;81.40
82782;DHT22;72517;47.260;11.422;2023-09-18T14:47:22;19.60;83.90
82782;DHT22;72517;47.260;11.422;2023-09-18T14:49:49;19.50;86.20
82782;DHT22;72517;47.260;11.422;2023-09-18T14:52:16;19.30;89.00
82782;DHT22;72517;47.260;11.422;2023-09-18T14:54:44;19.20;91.30
82782;DHT22;72517;47.260;11.422;2023-09-18T14:57:10;19.10;93.20
82782;DHT22;72517;47.260;11.422;2023-09-18T14:59:37;19.00;94.60
82782;DHT22;72517;47.260;11.422;2023-09-18T15:02:07;18.90;95.60
82782;DHT22;72517;47.260;11.422;2023-09-18T15:04:34;18.90;96.80
82782;DHT22;72517;47.260;11.422;2023-09-18T15:07:02;18.90;97.10
82782;DHT22;72517;47.260;11.422;2023-09-18T15:09:29;18.90;97.10
82782;DHT22;72517;47.260;11.422;2023-09-18T15:11:56;18.90;96.90
82782;DHT22;72517;47.260;11.422;2023-09-18T15:14:23;18.90;97.70
82782;DHT22;72517;47.260;11.422;2023-09-18T15:16:49;18.90;97.90
82782;DHT22;72517;47.260;11.422;2023-09-18T15:19:16;18.90;98.00
82782;DHT22;72517;47.260;11.422;2023-09-18T15:21:43;19.00;98.30
82782;DHT22;72517;47.260;11.422;2023-09-18T15:24:10;19.00;99.10
82782;DHT22;72517;47.260;11.422;2023-09-18T15:26:37;19.00;99.80
82782;DHT22;72517;47.260;11.422;2023-09-18T15:29:03;19.10;99.60
82782;DHT22;72517;47.260;11.422;2023-09-18T15:31:30;19.10;98.60
82782;DHT22;72517;47.260;11.422;2023-09-18T15:33:57;19.10;98.60
82782;DHT22;72517;47.260;11.422;2023-09-18T15:36:24;19.10;97.70
82782;DHT22;72517;47.260;11.422;2023-09-18T15:38:50;19.10;98.00
82782;DHT22;72517;47.260;11.422;2023-09-18T15:41:17;19.10;98.60